Darstellungsparameter: Aktuell verwendete Einstellungen:
Skalierung der Graphiken ... ?
xyx+y,   Skalierungsfaktor:      Skalierung: Modus: x, Faktor: 1
Darstellungszeitraum ... ?
Vom - - bis: - -   Zeitraum: 25.09.2021 - 25.09.2021
Min/Max/Avg-Anzeige ... ?
Zeige MMA aktuell
Zeige MMA Monat
Zeige MMA alles
Zeige --A aktuell
Zeige --A Monat
Zeige --A alles
Keine MMA-Anzeige
MMA:
Keine MMA-Graphiken
MMA-Basis: 25.09.2021 - 25.09.2021
Quicknavigation für Darstellung... ?
Tage:      1T, 2T, 3T, 5T -1T -2T -3T -5T +1T +2T +3T +5T
Wochen: 1W, 2W, 3W -1W -2W -3W +1W +2W +3W
Monate: 1M, 3M, 6M -1M -3M -6M +1M +3M +6M
Jahre:    1J, 3J, 5J, 10J -1J -3J -5J -10J +1J +3J +5J +10J
Nutze für die Darstellung ... ?
Originaldaten oder Mittelwerte auf ...
Stundenbasis Tagesbasis Wochenbasis
Monatsbasis Jahresbasis      Datenbasis: Original-Daten
Darstellen als:
Statistik (Auto) Statistik J:M      Darstellung:
Zur Graphik,    zurück zur Übersicht aller Sensoren.
 
Tabellarische Datenbersicht: ?
 
Sensor: Nr:Datum:Temp:Abs-Feuchte:Windchill:Wind:
Aussen-T/F 1 25-09-2021 02:00:00 12.4 C 10.16 g/m*3 12.4 C 0 km/h
2 25-09-2021 02:05:00 12.3 C 10.1 g/m*3 12.3 C 0 km/h
3 25-09-2021 02:10:00 12.3 C 10.1 g/m*3 12.3 C 0 km/h
4 25-09-2021 02:15:00 12.2 C 10.04 g/m*3 12.2 C 0 km/h
5 25-09-2021 02:20:00 12.1 C 9.97 g/m*3 12.1 C 0 km/h
6 25-09-2021 02:25:00 12.1 C 9.97 g/m*3 12.1 C 0 km/h
7 25-09-2021 02:30:00 12.1 C 10.08 g/m*3 12.1 C 0 km/h
8 25-09-2021 02:35:00 12.1 C 10.08 g/m*3 12.1 C 0 km/h
9 25-09-2021 02:40:00 12.1 C 10.08 g/m*3 12.1 C 0 km/h
10 25-09-2021 02:45:00 12.1 C 10.08 g/m*3 12.1 C 0 km/h
11 25-09-2021 02:50:00 12.1 C 10.08 g/m*3 12.1 C 0 km/h
12 25-09-2021 02:55:00 12 C 10.02 g/m*3 12 C 0 km/h
13 25-09-2021 03:00:00 11.8 C 9.89 g/m*3 11.8 C 0 km/h
14 25-09-2021 03:05:00 11.7 C 9.73 g/m*3 11.7 C 0 km/h
15 25-09-2021 03:10:00 11.6 C 9.67 g/m*3 11.6 C 0 km/h
16 25-09-2021 03:15:00 11.4 C 9.55 g/m*3 11.4 C 0 km/h
17 25-09-2021 03:20:00 11.3 C 9.49 g/m*3 11.3 C 0 km/h
18 25-09-2021 03:25:00 11.3 C 9.49 g/m*3 11.3 C 0 km/h
19 25-09-2021 03:30:00 11.2 C 9.43 g/m*3 11.2 C 0 km/h
20 25-09-2021 03:35:00 11.1 C 9.37 g/m*3 11.1 C 0 km/h
21 25-09-2021 03:40:00 11 C 9.31 g/m*3 11 C 0 km/h
22 25-09-2021 03:45:00 11 C 9.41 g/m*3 11 C 0 km/h
23 25-09-2021 03:50:00 11.1 C 9.47 g/m*3 11.1 C 0 km/h
24 25-09-2021 03:55:00 11.1 C 9.47 g/m*3 11.1 C 0 km/h
25 25-09-2021 04:00:00 11 C 9.41 g/m*3 11 C 0 km/h
Sensor: Nr:Datum:Temp:Abs-Feuchte:Windchill:Wind:
Aussen-T/F 26 25-09-2021 04:05:00 10.9 C 9.35 g/m*3 10.9 C 0 km/h
27 25-09-2021 04:10:00 10.8 C 9.29 g/m*3 10.8 C 0 km/h
28 25-09-2021 04:15:00 10.8 C 9.29 g/m*3 10.8 C 0 km/h
29 25-09-2021 04:20:00 10.7 C 9.23 g/m*3 10.7 C 0 km/h
30 25-09-2021 04:25:00 10.7 C 9.23 g/m*3 10.7 C 0 km/h
31 25-09-2021 04:30:00 10.8 C 9.39 g/m*3 10.8 C 0 km/h
32 25-09-2021 04:35:00 10.8 C 9.39 g/m*3 10.8 C 0 km/h
33 25-09-2021 04:40:00 10.8 C 9.39 g/m*3 10.8 C 0 km/h
34 25-09-2021 04:45:00 10.8 C 9.39 g/m*3 10.8 C 0 km/h
35 25-09-2021 04:50:00 10.8 C 9.39 g/m*3 10.8 C 0 km/h
36 25-09-2021 04:55:00 10.8 C 9.39 g/m*3 10.8 C 0 km/h
37 25-09-2021 05:00:00 10.8 C 9.39 g/m*3 10.8 C 0 km/h
38 25-09-2021 05:05:00 10.7 C 9.33 g/m*3 10.7 C 0 km/h
39 25-09-2021 05:10:00 10.7 C 9.33 g/m*3 10.7 C 0 km/h
40 25-09-2021 05:15:00 10.7 C 9.33 g/m*3 10.7 C 0 km/h
41 25-09-2021 05:20:00 10.6 C 9.27 g/m*3 10.6 C 0 km/h
42 25-09-2021 05:25:00 10.6 C 9.27 g/m*3 10.6 C 0 km/h
43 25-09-2021 05:30:00 10.6 C 9.27 g/m*3 10.6 C 0 km/h
44 25-09-2021 05:35:00 10.4 C 9.16 g/m*3 10.4 C 0 km/h
45 25-09-2021 05:40:00 10.3 C 9.1 g/m*3 10.3 C 0 km/h
46 25-09-2021 05:45:00 10.3 C 9.1 g/m*3 10.3 C 0 km/h
47 25-09-2021 05:50:00 10.3 C 9.1 g/m*3 10.3 C 0 km/h
48 25-09-2021 05:55:00 10.4 C 9.16 g/m*3 10.4 C 0 km/h
49 25-09-2021 06:00:00 10.5 C 9.21 g/m*3 10.5 C 0 km/h
50 25-09-2021 06:05:00 10.6 C 9.37 g/m*3 10.6 C 0 km/h
Sensor: Nr:Datum:Temp:Abs-Feuchte:Windchill:Wind:
Aussen-T/F 51 25-09-2021 06:10:00 10.7 C 9.43 g/m*3 10.7 C 0 km/h
52 25-09-2021 06:15:00 10.8 C 9.49 g/m*3 10.8 C 0 km/h
53 25-09-2021 06:20:00 10.8 C 9.49 g/m*3 10.8 C 0 km/h
54 25-09-2021 06:25:00 10.8 C 9.39 g/m*3 10.8 C 0 km/h
55 25-09-2021 06:30:00 10.7 C 9.33 g/m*3 10.7 C 0 km/h
56 25-09-2021 06:35:00 10.6 C 9.27 g/m*3 10.6 C 0 km/h
57 25-09-2021 06:40:00 10.6 C 9.27 g/m*3 10.6 C 0 km/h
58 25-09-2021 06:45:00 10.6 C 9.27 g/m*3 10.6 C 0 km/h
59 25-09-2021 06:50:00 10.5 C 9.21 g/m*3 10.5 C 0 km/h
60 25-09-2021 06:55:00 10.6 C 9.37 g/m*3 10.6 C 0 km/h
61 25-09-2021 07:00:00 10.7 C 9.43 g/m*3 10.7 C 0 km/h
62 25-09-2021 07:05:00 10.8 C 9.49 g/m*3 10.8 C 0 km/h
63 25-09-2021 07:10:00 10.8 C 9.49 g/m*3 10.8 C 0 km/h
64 25-09-2021 07:15:00 10.8 C 9.49 g/m*3 10.8 C 0 km/h
65 25-09-2021 07:20:00 10.7 C 9.33 g/m*3 10.7 C 0 km/h
66 25-09-2021 07:25:00 10.6 C 9.27 g/m*3 10.6 C 0 km/h
67 25-09-2021 07:30:00 10.4 C 9.16 g/m*3 10.4 C 0 km/h
68 25-09-2021 07:35:00 10.3 C 9.1 g/m*3 10.3 C 0 km/h
69 25-09-2021 07:40:00 10.2 C 9.04 g/m*3 10.2 C 0 km/h
70 25-09-2021 07:45:00 10.2 C 9.04 g/m*3 10.2 C 0 km/h
71 25-09-2021 07:50:00 10.2 C 9.04 g/m*3 10.2 C 0 km/h
72 25-09-2021 07:55:00 10.2 C 9.14 g/m*3 10.2 C 0 km/h
73 25-09-2021 08:00:00 10.2 C 9.14 g/m*3 10.2 C 0 km/h
74 25-09-2021 08:05:00 10.2 C 9.14 g/m*3 10.2 C 0 km/h
75 25-09-2021 08:10:00 10.3 C 9.19 g/m*3 10.3 C 0 km/h
Sensor: Nr:Datum:Temp:Abs-Feuchte:Windchill:Wind:
Aussen-T/F 76 25-09-2021 08:15:00 10.3 C 9.19 g/m*3 10.3 C 0 km/h
77 25-09-2021 08:20:00 10.3 C 9.19 g/m*3 10.3 C 0 km/h
78 25-09-2021 08:25:00 10.3 C 9.19 g/m*3 10.3 C 0 km/h
79 25-09-2021 08:30:00 10.3 C 9.19 g/m*3 10.3 C 0 km/h
80 25-09-2021 08:35:00 10.3 C 9.19 g/m*3 10.3 C 0 km/h
81 25-09-2021 08:40:00 10.5 C 9.31 g/m*3 10.5 C 0 km/h
82 25-09-2021 08:45:00 10.7 C 9.43 g/m*3 10.7 C 0 km/h
83 25-09-2021 08:50:00 10.8 C 9.49 g/m*3 10.8 C 0 km/h
84 25-09-2021 08:55:00 10.9 C 9.55 g/m*3 10.9 C 0 km/h
85 25-09-2021 09:00:00 10.9 C 9.55 g/m*3 10.9 C 0 km/h
86 25-09-2021 09:05:00 11 C 9.61 g/m*3 11 C 0 km/h
87 25-09-2021 09:10:00 11 C 9.61 g/m*3 11 C 0 km/h
88 25-09-2021 09:15:00 11.1 C 9.67 g/m*3 11.1 C 0 km/h
89 25-09-2021 09:20:00 11.2 C 9.73 g/m*3 11.2 C 0 km/h
90 25-09-2021 09:25:00 11.2 C 9.73 g/m*3 11.2 C 0 km/h
91 25-09-2021 09:30:00 11.3 C 9.89 g/m*3 11.3 C 0 km/h
92 25-09-2021 09:35:00 11.4 C 9.96 g/m*3 11.4 C 0 km/h
93 25-09-2021 09:40:00 11.4 C 9.96 g/m*3 11.4 C 0 km/h
94 25-09-2021 09:45:00 11.4 C 9.85 g/m*3 11.4 C 0 km/h
95 25-09-2021 09:50:00 11.4 C 9.85 g/m*3 11.4 C 0 km/h
96 25-09-2021 09:55:00 11.4 C 9.85 g/m*3 11.4 C 0 km/h
97 25-09-2021 10:00:00 11.4 C 9.85 g/m*3 11.4 C 0 km/h
98 25-09-2021 10:05:00 11.4 C 9.85 g/m*3 11.4 C 0 km/h
99 25-09-2021 10:10:00 11.5 C 9.92 g/m*3 11.5 C 0 km/h
100 25-09-2021 10:15:00 11.7 C 10.15 g/m*3 11.7 C 0 km/h
Sensor: Nr:Datum:Temp:Abs-Feuchte:Windchill:Wind:
Aussen-T/F 101 25-09-2021 10:20:00 11.9 C 10.27 g/m*3 11.9 C 0 km/h
102 25-09-2021 10:25:00 12.1 C 10.4 g/m*3 12.1 C 0 km/h
103 25-09-2021 10:30:00 12.2 C 10.47 g/m*3 12.2 C 0 km/h
104 25-09-2021 10:35:00 12.3 C 10.53 g/m*3 12.3 C 0 km/h
105 25-09-2021 10:40:00 12.4 C 10.6 g/m*3 12.4 C 0 km/h
106 25-09-2021 10:45:00 12.6 C 10.73 g/m*3 12.6 C 0 km/h
107 25-09-2021 10:50:00 12.6 C 10.73 g/m*3 12.6 C 0 km/h
108 25-09-2021 10:55:00 12.7 C 10.8 g/m*3 12.7 C 0 km/h
109 25-09-2021 11:00:00 12.8 C 10.87 g/m*3 12.8 C 0 km/h
110 25-09-2021 11:05:00 12.9 C 10.93 g/m*3 12.9 C 0 km/h
111 25-09-2021 11:10:00 13.2 C 11.14 g/m*3 13.2 C 0 km/h
112 25-09-2021 11:15:00 13.3 C 11.21 g/m*3 13.3 C 0 km/h
113 25-09-2021 11:20:00 13.4 C 11.28 g/m*3 13.4 C 0 km/h
114 25-09-2021 11:25:00 13.5 C 11.35 g/m*3 13.5 C 0 km/h
115 25-09-2021 11:30:00 13.6 C 11.42 g/m*3 13.6 C 0 km/h
116 25-09-2021 11:35:00 13.7 C 11.49 g/m*3 13.7 C 0 km/h
117 25-09-2021 11:40:00 13.8 C 11.56 g/m*3 13.8 C 0 km/h
118 25-09-2021 11:45:00 13.9 C 11.63 g/m*3 13.9 C 0 km/h
119 25-09-2021 11:50:00 14 C 11.7 g/m*3 14 C 0 km/h
120 25-09-2021 11:55:00 14.1 C 11.77 g/m*3 14.1 C 0 km/h
121 25-09-2021 12:00:00 14.3 C 11.92 g/m*3 14.3 C 0 km/h
122 25-09-2021 12:05:00 14.3 C 11.92 g/m*3 14.3 C 0 km/h
123 25-09-2021 12:10:00 14.4 C 11.87 g/m*3 14.4 C 0 km/h
124 25-09-2021 12:15:00 14.6 C 12.14 g/m*3 14.6 C 0 km/h
125 25-09-2021 12:20:00 14.8 C 12.29 g/m*3 14.8 C 0 km/h
Sensor: Nr:Datum:Temp:Abs-Feuchte:Windchill:Wind:
Aussen-T/F 126 25-09-2021 12:25:00 15.2 C 12.59 g/m*3 15.2 C 0 km/h
127 25-09-2021 12:30:00 15.4 C 12.61 g/m*3 15.4 C 0 km/h
128 25-09-2021 12:35:00 15.6 C 12.77 g/m*3 15.6 C 0 km/h
129 25-09-2021 12:40:00 15.7 C 12.84 g/m*3 15.7 C 0 km/h
130 25-09-2021 12:45:00 15.8 C 12.79 g/m*3 15.8 C 0 km/h
131 25-09-2021 12:50:00 15.9 C 12.87 g/m*3 15.9 C 0 km/h
132 25-09-2021 12:55:00 16 C 12.94 g/m*3 16 C 0 km/h
133 25-09-2021 13:00:00 16.2 C 12.96 g/m*3 16.2 C 0 km/h
134 25-09-2021 13:05:00 16.2 C 12.82 g/m*3 16.2 C 0 km/h
135 25-09-2021 13:10:00 16.3 C 12.9 g/m*3 16.3 C 0 km/h
136 25-09-2021 13:15:00 16.6 C 13.14 g/m*3 16.6 C 0 km/h
137 25-09-2021 13:20:00 16.7 C 13.07 g/m*3 16.7 C 0 km/h
138 25-09-2021 13:25:00 16.9 C 13.09 g/m*3 16.9 C 0 km/h

Legende:
   Min
   Max


Maximal/Minimal-Werte vom 25.09.2021 - 25.09.2021

Sensor Min Max Avg
Temp
(Aussen-T/F)
10.2 °C
25-09-2021  07:40:00
16.9 °C
25-09-2021  13:25:00
11.88 °C
Abs-Feuchte
(Aussen-T/F)
9.04 g/m*3
25-09-2021  07:40:00
13.14 g/m*3
25-09-2021  13:15:00
10.06 g/m*3
Windchill
(Aussen-T/F)
10.2 C
25-09-2021  07:40:00
16.9 C
25-09-2021  13:25:00
11.79 C

Die Daten stammen von einer Davis Vantage Pro 2 Wetter-Station und werden unter Linux mit der Software wview2wettercgi und aufbereitet. Alle Angaben erfolgen ohne Gewähr für ihre Vollständigkeit oder Richtigkeit.
Kontakt: Rainer Krienke krienke@uni-koblenz.de . Meine Webseiten an der Uni Koblenz oder privat.
Version: $Revision: 0.78 $